Orbital elements of QUAKESAT
| Launched | 29 June 2003 |
| Flight ended | – |
| Launch site | Plesetsk Missile and Space Complex, Russia |
| Owner | United States |
| NORAD ID | 27845 |
| Date fetched |
Epoch osculation |
Inc. [°] |
Ecc. | RA asc node [hr] |
Arg Peri. [°] |
Mean anom [°] |
Mean motion [rev/day] |
Abs. mag |
| Date fetched |
Epoch osculation |
Inc. [°] |
Ecc. | RA asc node [hr] |
Arg Peri. [°] |
Mean anom [°] |
Mean motion [rev/day] |
Abs. mag |
| 2026 May 03 17:57 | 2026 Apr 30 13:14:00 | 98.6643 | 0.00083 | 8.6639 | 350.7147 | 9.3878 | 14.24910 | – |
| 2026 May 02 17:57 | 2026 Apr 30 13:14:00 | 98.6643 | 0.00083 | 8.6639 | 350.7147 | 9.3878 | 14.24910 | – |
| 2026 May 01 17:56 | 2026 Apr 30 13:14:00 | 98.6643 | 0.00083 | 8.6639 | 350.7147 | 9.3878 | 14.24910 | – |
| 2026 Apr 30 17:56 | 2026 Apr 30 13:14:00 | 98.6643 | 0.00083 | 8.6639 | 350.7147 | 9.3878 | 14.24910 | – |
| 2026 Apr 29 17:57 | 2026 Apr 24 00:30:11 | 98.6647 | 0.00087 | 8.2340 | 9.7046 | 9.3878 | 14.24910 | – |
| 2026 Apr 28 17:56 | 2026 Apr 24 00:30:11 | 98.6647 | 0.00087 | 8.2340 | 9.7046 | 9.3878 | 14.24910 | – |
| 2026 Apr 27 17:58 | 2026 Apr 24 00:30:11 | 98.6647 | 0.00087 | 8.2340 | 9.7046 | 9.3878 | 14.24910 | – |
| 2026 Apr 26 17:58 | 2026 Apr 24 00:30:11 | 98.6647 | 0.00087 | 8.2340 | 9.7046 | 9.3878 | 14.24910 | – |
| 2026 Apr 25 17:58 | 2026 Apr 24 00:30:11 | 98.6647 | 0.00087 | 8.2340 | 9.7046 | 9.3878 | 14.24910 | – |
| 2026 Apr 24 17:59 | 2026 Apr 24 00:30:11 | 98.6647 | 0.00087 | 8.2340 | 9.7046 | 9.3878 | 14.24910 | – |
| 2026 Apr 23 17:57 | 2026 Apr 19 05:54:14 | 98.6653 | 0.00090 | 7.9197 | 23.0338 | 9.3878 | 14.24910 | – |
| 2026 Apr 22 17:57 | 2026 Apr 19 05:54:14 | 98.6653 | 0.00090 | 7.9197 | 23.0338 | 9.3878 | 14.24910 | – |
| 2026 Apr 21 17:57 | 2026 Apr 19 05:54:14 | 98.6653 | 0.00090 | 7.9197 | 23.0338 | 9.3878 | 14.24910 | – |
| 2026 Apr 20 17:57 | 2026 Apr 19 05:54:14 | 98.6653 | 0.00090 | 7.9197 | 23.0338 | 9.3878 | 14.24910 | – |
| 2026 Apr 19 17:58 | 2026 Apr 19 05:54:14 | 98.6653 | 0.00090 | 7.9197 | 23.0338 | 9.3878 | 14.24910 | – |
| 2026 Apr 18 17:56 | 2026 Apr 12 23:54:49 | 98.6656 | 0.00093 | 7.5084 | 39.8764 | 9.3878 | 14.24910 | – |
| 2026 Apr 16 17:57 | 2026 Apr 12 23:54:49 | 98.6656 | 0.00093 | 7.5084 | 39.8764 | 9.3878 | 14.24910 | – |
| 2026 Apr 14 17:57 | 2026 Apr 12 23:54:49 | 98.6656 | 0.00093 | 7.5084 | 39.8764 | 9.3878 | 14.24910 | – |
| 2026 Apr 13 17:57 | 2026 Apr 12 23:54:49 | 98.6656 | 0.00093 | 7.5084 | 39.8764 | 9.3878 | 14.24910 | – |
| 2026 Apr 12 17:57 | 2026 Apr 08 13:44:26 | 98.6659 | 0.00095 | 7.2172 | 51.5494 | 9.3878 | 14.24910 | – |
| 2026 Apr 11 17:57 | 2026 Apr 08 13:44:26 | 98.6659 | 0.00095 | 7.2172 | 51.5494 | 9.3878 | 14.24910 | – |
| 2026 Apr 10 17:58 | 2026 Apr 08 13:44:26 | 98.6659 | 0.00095 | 7.2172 | 51.5494 | 9.3878 | 14.24910 | – |
| 2026 Apr 09 18:01 | 2026 Apr 08 13:44:26 | 98.6659 | 0.00095 | 7.2172 | 51.5494 | 9.3878 | 14.24910 | – |
| 2026 Apr 08 17:57 | 2026 Apr 08 13:44:26 | 98.6659 | 0.00095 | 7.2172 | 51.5494 | 9.3878 | 14.24910 | – |
| 2026 Apr 07 17:57 | 2026 Apr 02 06:03:50 | 98.6662 | 0.00097 | 6.8012 | 67.8737 | 9.3878 | 14.24910 | – |
| 2026 Apr 06 17:57 | 2026 Apr 02 06:03:50 | 98.6662 | 0.00097 | 6.8012 | 67.8737 | 9.3878 | 14.24910 | – |